createdAt,value
2023-02-19T00:01:36.243Z,7.25
2023-02-19T00:04:07.368Z,7.26
2023-02-19T00:06:35.342Z,7.20
2023-02-19T00:09:03.018Z,7.17
2023-02-19T00:11:32.715Z,7.14
2023-02-19T00:14:00.969Z,7.17
2023-02-19T00:16:36.750Z,7.14
2023-02-19T00:19:07.621Z,7.19
2023-02-19T00:21:34.624Z,7.20
2023-02-19T00:24:03.628Z,7.20
2023-02-19T00:26:31.112Z,7.19
2023-02-19T00:28:59.265Z,7.20
2023-02-19T00:31:27.629Z,7.15
2023-02-19T00:33:57.685Z,7.18
2023-02-19T00:36:26.308Z,7.14
2023-02-19T00:38:53.335Z,7.16
2023-02-19T00:41:20.999Z,7.14
2023-02-19T00:43:49.580Z,7.04
2023-02-19T00:46:19.158Z,6.96
2023-02-19T00:48:46.959Z,6.90
2023-02-19T00:51:14.855Z,6.91
2023-02-19T00:53:42.662Z,6.90
2023-02-19T00:56:10.006Z,6.83
2023-02-19T00:58:37.569Z,6.96
2023-02-19T01:01:06.117Z,6.94
2023-02-19T01:03:34.333Z,6.87
2023-02-19T01:06:02.433Z,6.83
2023-02-19T01:08:33.044Z,6.82
2023-02-19T01:11:04.542Z,6.74
2023-02-19T01:13:32.300Z,6.80
2023-02-19T01:16:05.946Z,6.84
2023-02-19T01:18:33.622Z,6.83
2023-02-19T01:21:08.686Z,6.82
2023-02-19T01:23:40.199Z,6.77
2023-02-19T01:26:12.794Z,6.72
2023-02-19T01:28:40.498Z,6.65
2023-02-19T01:31:10.565Z,6.75
2023-02-19T01:33:37.681Z,6.83
2023-02-19T01:36:06.398Z,6.84
2023-02-19T01:38:33.353Z,6.76
2023-02-19T01:41:02.861Z,6.80
2023-02-19T01:43:32.840Z,6.80
2023-02-19T01:45:59.991Z,6.75
2023-02-19T01:48:37.711Z,6.81
2023-02-19T01:51:06.592Z,6.85
2023-02-19T01:53:38.745Z,6.81
2023-02-19T01:56:06.919Z,6.79
2023-02-19T01:58:39.156Z,6.76
2023-02-19T02:01:08.100Z,6.72
2023-02-19T02:03:37.585Z,6.75
2023-02-19T02:06:21.609Z,6.78
2023-02-19T02:09:13.565Z,6.78
2023-02-19T02:11:47.993Z,6.77
2023-02-19T02:14:18.066Z,6.72
2023-02-19T02:17:03.928Z,6.69
2023-02-19T02:20:05.099Z,6.70
2023-02-19T02:22:41.803Z,6.68
2023-02-19T02:25:26.974Z,6.70
2023-02-19T02:28:06.326Z,6.63
2023-02-19T02:30:42.276Z,6.63
2023-02-19T02:33:27.978Z,6.57
2023-02-19T02:36:24.032Z,6.61
2023-02-19T02:38:53.502Z,6.62
2023-02-19T02:41:21.626Z,6.77
2023-02-19T02:43:48.779Z,7.01
2023-02-19T02:46:19.485Z,7.19
2023-02-19T02:49:03.299Z,7.31
2023-02-19T02:51:38.183Z,7.36
2023-02-19T02:54:42.046Z,7.35
2023-02-19T02:57:15.543Z,7.35
2023-02-19T02:59:48.621Z,7.36
2023-02-19T03:02:22.690Z,7.38
2023-02-19T03:05:14.348Z,7.39
2023-02-19T03:08:10.890Z,7.38
2023-02-19T03:10:46.253Z,7.46
2023-02-19T03:13:51.911Z,7.47
2023-02-19T03:16:49.027Z,7.50
2023-02-19T03:19:19.920Z,7.45
2023-02-19T03:22:10.340Z,7.42
2023-02-19T03:25:09.111Z,7.39
2023-02-19T03:27:39.194Z,7.33
2023-02-19T03:30:14.129Z,7.26
2023-02-19T03:33:08.157Z,7.26
2023-02-19T03:35:44.501Z,7.16
2023-02-19T03:38:23.885Z,7.13
2023-02-19T03:41:13.333Z,7.06
2023-02-19T03:43:52.112Z,7.00
2023-02-19T03:46:41.588Z,6.95
2023-02-19T03:49:43.689Z,6.93
2023-02-19T03:52:21.139Z,6.90
2023-02-19T03:55:15.874Z,6.81
2023-02-19T03:57:46.048Z,6.86
2023-02-19T04:00:24.998Z,6.87
2023-02-19T04:03:00.237Z,6.76
2023-02-19T04:05:35.492Z,6.74
2023-02-19T04:08:16.576Z,6.73
2023-02-19T04:10:49.210Z,6.71
2023-02-19T04:13:27.477Z,6.74
2023-02-19T04:16:00.297Z,6.69
2023-02-19T04:18:33.869Z,6.69
2023-02-19T04:21:02.833Z,6.68
2023-02-19T04:23:37.103Z,6.65
2023-02-19T04:26:06.049Z,6.76
2023-02-19T04:28:33.676Z,6.79
2023-02-19T04:31:01.669Z,6.70
2023-02-19T04:33:28.472Z,6.64
2023-02-19T04:35:55.476Z,6.62
2023-02-19T04:38:22.418Z,6.66
2023-02-19T04:40:50.883Z,6.62
2023-02-19T04:43:18.596Z,6.61
2023-02-19T04:45:45.404Z,6.64
2023-02-19T04:48:12.275Z,6.61
2023-02-19T04:50:40.380Z,6.60
2023-02-19T04:53:07.469Z,6.61
2023-02-19T04:55:38.783Z,6.61
2023-02-19T04:58:05.870Z,6.61
2023-02-19T05:00:33.412Z,6.66
2023-02-19T05:03:00.687Z,6.60
2023-02-19T05:05:27.682Z,6.61
2023-02-19T05:07:54.503Z,6.60
2023-02-19T05:10:21.524Z,6.61
2023-02-19T05:12:48.654Z,6.69
2023-02-19T05:15:16.026Z,6.63
2023-02-19T05:17:43.063Z,6.59
2023-02-19T05:20:10.030Z,6.58
2023-02-19T05:22:36.995Z,6.58
2023-02-19T05:25:04.727Z,6.58
2023-02-19T05:27:32.319Z,6.64
2023-02-19T05:30:01.256Z,6.64
2023-02-19T05:32:28.407Z,6.61
2023-02-19T05:34:55.248Z,6.59
2023-02-19T05:37:22.372Z,6.57
2023-02-19T05:39:49.687Z,6.54
2023-02-19T05:42:16.842Z,6.56
2023-02-19T05:44:43.882Z,6.56
2023-02-19T05:47:10.992Z,6.57
2023-02-19T05:49:37.855Z,6.52
2023-02-19T05:52:05.093Z,6.48
2023-02-19T05:54:32.257Z,6.46
2023-02-19T05:56:59.544Z,6.34
2023-02-19T05:59:27.797Z,6.41
2023-02-19T06:01:55.173Z,6.45
2023-02-19T06:04:22.884Z,6.43
2023-02-19T06:06:50.752Z,6.43
2023-02-19T06:09:18.045Z,6.48
2023-02-19T06:11:45.042Z,6.45
2023-02-19T06:14:13.876Z,6.41
2023-02-19T06:16:41.196Z,6.43
2023-02-19T06:19:08.105Z,6.47
2023-02-19T06:21:35.216Z,6.53
2023-02-19T06:24:11.127Z,6.51
2023-02-19T06:26:38.112Z,6.56
2023-02-19T06:29:05.240Z,6.58
2023-02-19T06:31:32.106Z,6.62
2023-02-19T06:34:03.809Z,6.62
2023-02-19T06:36:32.553Z,6.59
2023-02-19T06:39:00.481Z,6.58
2023-02-19T06:41:27.296Z,6.56
2023-02-19T06:43:54.530Z,6.60
2023-02-19T06:46:21.430Z,6.52
2023-02-19T06:48:48.858Z,6.54
2023-02-19T06:51:18.929Z,6.50
2023-02-19T06:53:46.501Z,6.53
2023-02-19T06:56:31.937Z,6.52
2023-02-19T06:59:02.011Z,6.56
2023-02-19T07:01:30.765Z,6.59
2023-02-19T07:03:58.206Z,6.37
2023-02-19T07:06:25.905Z,6.33
2023-02-19T07:08:54.973Z,6.30
2023-02-19T07:11:22.754Z,6.20
2023-02-19T07:13:56.616Z,6.27
2023-02-19T07:16:24.712Z,6.09
2023-02-19T07:18:52.035Z,6.02
2023-02-19T07:21:19.146Z,6.05
2023-02-19T07:23:46.128Z,5.99
2023-02-19T07:26:15.074Z,6.02
2023-02-19T07:28:46.697Z,6.00
2023-02-19T07:31:15.868Z,6.07
2023-02-19T07:33:44.054Z,6.07
2023-02-19T07:36:12.224Z,6.23
2023-02-19T07:38:39.409Z,6.39
2023-02-19T07:41:07.060Z,6.53
2023-02-19T07:43:36.406Z,6.61
2023-02-19T07:46:05.297Z,6.63
2023-02-19T07:48:34.689Z,6.69
2023-02-19T07:51:03.589Z,6.80
2023-02-19T07:53:32.951Z,6.87
2023-02-19T07:56:01.831Z,6.90
2023-02-19T07:58:31.022Z,6.90
2023-02-19T08:01:06.638Z,6.92
2023-02-19T08:03:34.642Z,6.88
2023-02-19T08:06:01.853Z,6.95
2023-02-19T08:08:29.449Z,6.93
2023-02-19T08:11:18.406Z,7.00
2023-02-19T08:13:48.794Z,7.00
2023-02-19T08:16:29.567Z,7.08
2023-02-19T08:19:05.813Z,7.04
2023-02-19T08:21:34.495Z,7.06
2023-02-19T08:24:01.959Z,7.00
2023-02-19T08:26:28.686Z,6.95
2023-02-19T08:28:55.627Z,6.92
2023-02-19T08:31:22.480Z,6.94
2023-02-19T08:33:49.383Z,6.90
2023-02-19T08:36:16.432Z,7.00
2023-02-19T08:38:45.610Z,7.08
2023-02-19T08:41:13.733Z,7.12
2023-02-19T08:43:42.058Z,7.27
2023-02-19T08:46:12.403Z,7.30
2023-02-19T08:48:39.806Z,7.36
2023-02-19T08:51:10.846Z,7.56
2023-02-19T08:53:39.854Z,7.52
2023-02-19T08:56:13.148Z,7.68
2023-02-19T08:58:40.441Z,7.66
2023-02-19T09:01:13.095Z,7.84
2023-02-19T09:03:41.028Z,8.13
2023-02-19T09:06:13.954Z,8.20
2023-02-19T09:08:41.325Z,8.40
2023-02-19T09:11:08.155Z,8.37
2023-02-19T09:13:35.192Z,8.37
2023-02-19T09:16:03.217Z,8.30
2023-02-19T09:18:30.520Z,8.11
2023-02-19T09:21:03.986Z,8.30
2023-02-19T09:23:36.495Z,8.38
2023-02-19T09:26:08.089Z,8.54
2023-02-19T09:28:35.867Z,8.51
2023-02-19T09:31:05.483Z,8.49
2023-02-19T09:33:32.901Z,8.48
2023-02-19T09:36:01.410Z,8.46
2023-02-19T09:38:29.769Z,8.59
2023-02-19T09:40:58.848Z,8.63
2023-02-19T09:43:29.499Z,8.64
2023-02-19T09:46:11.836Z,8.57
2023-02-19T09:48:38.893Z,8.69
2023-02-19T09:51:10.269Z,8.56
2023-02-19T09:53:43.966Z,8.66
2023-02-19T09:56:11.183Z,8.74
2023-02-19T09:58:48.157Z,8.82
2023-02-19T10:01:15.879Z,8.78
2023-02-19T10:03:46.663Z,8.79
2023-02-19T10:06:23.187Z,8.88
2023-02-19T10:08:54.055Z,8.86
2023-02-19T10:11:25.184Z,8.92
2023-02-19T10:14:08.741Z,8.93
2023-02-19T10:16:43.501Z,9.05
2023-02-19T10:19:12.756Z,8.97
2023-02-19T10:21:40.841Z,9.13
2023-02-19T10:24:14.609Z,9.10
2023-02-19T10:26:41.812Z,9.16
2023-02-19T10:29:09.995Z,9.16
2023-02-19T10:31:37.413Z,9.34
2023-02-19T10:34:18.249Z,9.50
2023-02-19T10:36:49.716Z,9.72
2023-02-19T10:39:41.681Z,9.83
2023-02-19T10:42:23.352Z,9.71
2023-02-19T10:44:58.631Z,9.93
2023-02-19T10:47:29.493Z,10.00
2023-02-19T10:50:00.810Z,9.91
2023-02-19T10:52:33.505Z,9.79
2023-02-19T10:55:24.345Z,9.69
2023-02-19T10:57:51.729Z,9.66
2023-02-19T11:00:28.389Z,9.56
2023-02-19T11:03:19.303Z,9.60
2023-02-19T11:06:01.433Z,9.71
2023-02-19T11:08:56.640Z,9.79
2023-02-19T11:11:37.282Z,9.60
2023-02-19T11:14:17.072Z,9.71
2023-02-19T11:16:52.925Z,9.58
2023-02-19T11:19:40.912Z,9.72
2023-02-19T11:22:30.296Z,9.65
2023-02-19T11:25:14.465Z,9.86
2023-02-19T11:28:06.455Z,9.84
2023-02-19T11:30:40.115Z,9.76
2023-02-19T11:33:29.643Z,9.70
2023-02-19T11:36:29.469Z,9.57
2023-02-19T11:39:00.866Z,9.49
2023-02-19T11:41:36.573Z,9.43
2023-02-19T11:44:32.495Z,9.64
2023-02-19T11:47:21.190Z,9.60
2023-02-19T11:50:02.505Z,9.59
2023-02-19T11:53:09.073Z,9.73
2023-02-19T11:55:51.434Z,9.71
2023-02-19T11:58:47.329Z,9.61
2023-02-19T12:01:48.514Z,9.57
2023-02-19T12:04:43.085Z,9.51
2023-02-19T12:07:38.503Z,9.54
2023-02-19T12:10:08.512Z,9.42
2023-02-19T12:12:42.180Z,9.22
2023-02-19T12:15:43.564Z,9.19
2023-02-19T12:18:39.965Z,9.35
2023-02-19T12:21:17.374Z,9.42
2023-02-19T12:23:56.122Z,9.34
2023-02-19T12:26:59.171Z,9.29
2023-02-19T12:29:36.474Z,9.26
2023-02-19T12:32:03.655Z,9.20
2023-02-19T12:34:55.034Z,9.13
2023-02-19T12:37:39.323Z,9.03
2023-02-19T12:40:45.598Z,9.11
2023-02-19T12:43:23.271Z,9.07
2023-02-19T12:46:18.497Z,8.99
2023-02-19T12:48:52.956Z,8.98
2023-02-19T12:51:32.207Z,8.98
2023-02-19T12:53:59.114Z,8.90
2023-02-19T12:56:34.066Z,8.90
2023-02-19T12:59:39.540Z,8.96
2023-02-19T13:02:09.991Z,9.06
2023-02-19T13:04:55.955Z,9.03
2023-02-19T13:07:35.780Z,9.15
2023-02-19T13:10:17.812Z,9.06
2023-02-19T13:12:48.539Z,8.99
2023-02-19T13:15:21.752Z,8.96
2023-02-19T13:17:52.405Z,9.03
2023-02-19T13:20:35.258Z,8.93
2023-02-19T13:23:36.925Z,8.85
2023-02-19T13:26:08.019Z,8.77
2023-02-19T13:29:15.965Z,8.86
2023-02-19T13:32:05.259Z,8.77
2023-02-19T13:34:56.146Z,8.80
2023-02-19T13:37:27.466Z,8.71
2023-02-19T13:40:06.088Z,8.62
2023-02-19T13:42:51.075Z,8.58
2023-02-19T13:45:38.021Z,8.67
2023-02-19T13:48:23.591Z,8.43
2023-02-19T13:51:36.527Z,8.53
2023-02-19T13:54:40.126Z,8.48
2023-02-19T13:57:24.140Z,8.45
2023-02-19T13:59:57.428Z,8.48
2023-02-19T14:02:39.544Z,8.51
2023-02-19T14:05:11.081Z,8.54
2023-02-19T14:07:55.447Z,8.57
2023-02-19T14:11:01.978Z,8.53
2023-02-19T14:13:47.771Z,8.46
2023-02-19T14:16:37.350Z,8.48
2023-02-19T14:19:14.387Z,8.45
2023-02-19T14:21:46.049Z,8.41
2023-02-19T14:24:20.079Z,8.53
2023-02-19T14:26:51.136Z,8.54
2023-02-19T14:29:18.942Z,8.48
2023-02-19T14:31:47.180Z,8.53
2023-02-19T14:34:25.272Z,8.53
2023-02-19T14:37:01.279Z,8.59
2023-02-19T14:39:33.374Z,8.67
2023-02-19T14:42:06.392Z,8.75
2023-02-19T14:44:47.756Z,8.77
2023-02-19T14:47:21.274Z,8.73
2023-02-19T14:50:04.203Z,8.83
2023-02-19T14:52:43.773Z,8.69
2023-02-19T14:55:34.833Z,8.71
2023-02-19T14:58:16.970Z,8.73
2023-02-19T15:00:44.483Z,8.71
2023-02-19T15:03:37.137Z,8.67
2023-02-19T15:06:12.189Z,8.66
2023-02-19T15:08:44.862Z,8.57
2023-02-19T15:11:18.779Z,8.54
2023-02-19T15:13:58.397Z,8.54
2023-02-19T15:16:30.581Z,8.53
2023-02-19T15:19:00.923Z,8.52
2023-02-19T15:21:33.586Z,8.50
2023-02-19T15:24:04.664Z,8.42
2023-02-19T15:26:41.357Z,8.37
2023-02-19T15:29:14.782Z,8.31
2023-02-19T15:31:56.954Z,8.27
2023-02-19T15:34:26.532Z,8.20
2023-02-19T15:37:00.548Z,8.16
2023-02-19T15:39:32.331Z,8.16
2023-02-19T15:42:03.672Z,8.03
2023-02-19T15:44:49.401Z,7.98
2023-02-19T15:47:20.916Z,7.98
2023-02-19T15:50:01.057Z,7.91
2023-02-19T15:52:44.570Z,7.78
2023-02-19T15:55:48.262Z,7.73
2023-02-19T15:58:39.832Z,7.67
2023-02-19T16:01:21.186Z,7.58
2023-02-19T16:03:48.978Z,7.55
2023-02-19T16:06:18.005Z,7.55
2023-02-19T16:09:01.568Z,7.56
2023-02-19T16:11:39.344Z,7.46
2023-02-19T16:14:38.537Z,7.34
2023-02-19T16:17:11.399Z,7.21
2023-02-19T16:19:41.918Z,7.19
2023-02-19T16:22:15.490Z,7.12
2023-02-19T16:24:48.748Z,7.06
2023-02-19T16:27:31.205Z,6.98
2023-02-19T16:30:02.600Z,6.91
2023-02-19T16:32:29.745Z,6.85
2023-02-19T16:34:56.974Z,6.83
2023-02-19T16:37:38.478Z,6.84
2023-02-19T16:40:08.693Z,6.80
2023-02-19T16:43:01.972Z,6.79
2023-02-19T16:45:29.401Z,6.81
2023-02-19T16:47:56.584Z,6.82
2023-02-19T16:50:26.399Z,6.84
2023-02-19T16:52:59.101Z,6.89
2023-02-19T16:55:27.955Z,6.91
2023-02-19T16:57:55.407Z,6.90
2023-02-19T17:00:27.807Z,6.93
2023-02-19T17:03:01.663Z,6.93
2023-02-19T17:05:32.047Z,6.91
2023-02-19T17:07:59.027Z,6.87
2023-02-19T17:10:26.887Z,6.89
2023-02-19T17:12:55.210Z,6.91
2023-02-19T17:15:23.031Z,6.87
2023-02-19T17:17:52.378Z,6.94
2023-02-19T17:20:28.965Z,7.01
2023-02-19T17:22:56.414Z,7.07
2023-02-19T17:25:23.526Z,7.13
2023-02-19T17:27:50.565Z,7.17
2023-02-19T17:30:30.143Z,7.23
2023-02-19T17:32:58.597Z,7.29
2023-02-19T17:35:25.959Z,7.27
2023-02-19T17:37:53.585Z,7.31
2023-02-19T17:40:32.783Z,7.24
2023-02-19T17:43:02.389Z,7.25
2023-02-19T17:45:29.708Z,7.36
2023-02-19T17:47:57.741Z,7.34
2023-02-19T17:50:28.419Z,7.35
2023-02-19T17:52:56.581Z,7.32
2023-02-19T17:55:24.436Z,7.36
2023-02-19T17:57:55.821Z,7.37
2023-02-19T18:00:26.847Z,7.33
2023-02-19T18:02:54.193Z,7.34
2023-02-19T18:05:25.567Z,7.24
2023-02-19T18:07:56.383Z,7.22
2023-02-19T18:10:25.455Z,7.22
2023-02-19T18:12:52.420Z,7.31
2023-02-19T18:15:22.793Z,7.48
2023-02-19T18:17:50.085Z,7.74
2023-02-19T18:20:20.867Z,7.59
2023-02-19T18:22:52.197Z,7.53
2023-02-19T18:25:23.110Z,7.38
2023-02-19T18:27:51.242Z,7.31
2023-02-19T18:30:22.174Z,7.30
2023-02-19T18:32:51.336Z,7.29
2023-02-19T18:35:20.702Z,7.30
2023-02-19T18:37:55.929Z,7.37
2023-02-19T18:40:28.154Z,7.37
2023-02-19T18:42:55.459Z,7.36
2023-02-19T18:45:22.870Z,7.44
2023-02-19T18:47:50.519Z,7.50
2023-02-19T18:50:19.286Z,7.56
2023-02-19T18:52:48.674Z,7.64
2023-02-19T18:55:16.183Z,7.67
2023-02-19T18:57:43.934Z,7.64
2023-02-19T19:00:19.193Z,7.64
2023-02-19T19:02:49.721Z,7.69
2023-02-19T19:05:25.344Z,7.74
2023-02-19T19:07:58.681Z,7.89
2023-02-19T19:10:27.025Z,7.89
2023-02-19T19:12:54.617Z,7.94
2023-02-19T19:15:23.074Z,7.92
2023-02-19T19:17:51.200Z,7.75
2023-02-19T19:20:25.640Z,7.34
2023-02-19T19:22:55.892Z,7.06
2023-02-19T19:25:26.183Z,6.64
2023-02-19T19:27:58.846Z,6.56
2023-02-19T19:30:26.293Z,6.44
2023-02-19T19:32:54.075Z,6.13
2023-02-19T19:35:23.675Z,5.94
2023-02-19T19:37:51.019Z,5.76
2023-02-19T19:40:23.274Z,5.70
2023-02-19T19:42:52.881Z,5.60
2023-02-19T19:45:28.826Z,5.47
2023-02-19T19:47:56.426Z,5.34
2023-02-19T19:50:24.771Z,5.25
2023-02-19T19:52:53.483Z,5.19
2023-02-19T19:55:21.519Z,5.19
2023-02-19T19:57:49.801Z,5.00
2023-02-19T20:00:18.880Z,5.03
2023-02-19T20:02:46.473Z,4.99
2023-02-19T20:05:15.107Z,4.76
2023-02-19T20:07:42.895Z,4.56
2023-02-19T20:10:12.397Z,4.49
2023-02-19T20:12:40.231Z,4.45
2023-02-19T20:15:08.066Z,4.38
2023-02-19T20:17:35.383Z,4.39
2023-02-19T20:20:02.814Z,4.32
2023-02-19T20:22:29.949Z,4.22
2023-02-19T20:24:57.579Z,4.14
2023-02-19T20:27:24.804Z,4.11
2023-02-19T20:29:52.057Z,4.05
2023-02-19T20:32:19.566Z,3.94
2023-02-19T20:34:48.040Z,3.92
2023-02-19T20:37:15.400Z,3.88
2023-02-19T20:39:43.075Z,3.85
2023-02-19T20:42:10.497Z,3.86
2023-02-19T20:44:37.487Z,3.80
2023-02-19T20:47:04.670Z,3.78
2023-02-19T20:49:32.041Z,3.77
2023-02-19T20:52:04.266Z,3.75
2023-02-19T20:54:33.447Z,3.80
2023-02-19T20:57:04.308Z,3.80
2023-02-19T20:59:38.093Z,3.79
2023-02-19T21:02:14.132Z,3.80
2023-02-19T21:04:41.148Z,3.82
2023-02-19T21:07:07.952Z,3.82
2023-02-19T21:09:35.792Z,3.76
2023-02-19T21:12:02.942Z,3.73
2023-02-19T21:14:30.190Z,3.76
2023-02-19T21:16:57.238Z,3.70
2023-02-19T21:19:24.466Z,3.78
2023-02-19T21:21:51.618Z,3.72
2023-02-19T21:24:18.625Z,3.69
2023-02-19T21:26:45.983Z,3.76
2023-02-19T21:29:18.453Z,3.69
2023-02-19T21:31:48.863Z,3.67
2023-02-19T21:34:20.128Z,3.70
2023-02-19T21:36:47.336Z,3.70
2023-02-19T21:39:17.976Z,3.70
2023-02-19T21:41:45.063Z,3.69
2023-02-19T21:44:13.103Z,3.69
2023-02-19T21:46:40.333Z,3.68
2023-02-19T21:49:07.384Z,3.65
2023-02-19T21:51:37.975Z,3.68
2023-02-19T21:54:06.429Z,3.67
2023-02-19T21:56:36.399Z,3.61
2023-02-19T21:59:04.095Z,3.59
2023-02-19T22:01:37.968Z,3.59
2023-02-19T22:04:10.044Z,3.59
2023-02-19T22:06:38.998Z,3.60
2023-02-19T22:09:09.110Z,3.58
2023-02-19T22:11:36.315Z,3.55
2023-02-19T22:14:03.567Z,3.60
2023-02-19T22:16:30.887Z,3.63
2023-02-19T22:18:59.191Z,3.63
2023-02-19T22:21:29.964Z,3.63
2023-02-19T22:24:02.096Z,3.62
2023-02-19T22:26:36.033Z,3.63
2023-02-19T22:29:06.488Z,3.56
2023-02-19T22:31:34.285Z,3.61
2023-02-19T22:34:01.704Z,3.55
2023-02-19T22:36:31.076Z,3.58
2023-02-19T22:38:59.770Z,3.57
2023-02-19T22:41:26.982Z,3.57
2023-02-19T22:43:54.449Z,3.52
2023-02-19T22:46:24.837Z,3.54
2023-02-19T22:48:51.999Z,3.51
2023-02-19T22:51:22.178Z,3.44
2023-02-19T22:53:54.804Z,3.50
2023-02-19T22:56:24.453Z,3.41
2023-02-19T22:58:52.315Z,3.40
2023-02-19T23:01:19.747Z,3.38
2023-02-19T23:03:48.085Z,3.38
2023-02-19T23:06:16.668Z,3.29
2023-02-19T23:08:44.009Z,3.39
2023-02-19T23:11:12.653Z,3.34
2023-02-19T23:13:42.730Z,3.29
2023-02-19T23:16:10.088Z,3.30
2023-02-19T23:18:37.375Z,3.31
2023-02-19T23:21:05.031Z,3.24
2023-02-19T23:23:32.032Z,3.19
2023-02-19T23:25:58.980Z,3.22
2023-02-19T23:28:25.962Z,3.23
2023-02-19T23:30:53.188Z,3.11
2023-02-19T23:33:20.284Z,3.17
2023-02-19T23:35:49.559Z,3.16
2023-02-19T23:38:17.800Z,3.12
2023-02-19T23:40:45.012Z,3.03
2023-02-19T23:43:11.872Z,3.03
2023-02-19T23:45:38.796Z,2.94
2023-02-19T23:48:05.663Z,2.91
2023-02-19T23:50:32.721Z,2.91
2023-02-19T23:52:59.721Z,2.90
2023-02-19T23:55:26.874Z,2.88
2023-02-19T23:57:54.083Z,2.86
